createdAt,value
2018-01-27T00:00:03.270Z,12.20
2018-01-27T00:02:30.919Z,14.10
2018-01-27T00:04:58.547Z,11.57
2018-01-27T00:07:26.957Z,12.70
2018-01-27T00:09:54.632Z,12.32
2018-01-27T00:12:22.250Z,12.67
2018-01-27T00:14:50.681Z,12.95
2018-01-27T00:17:18.347Z,11.48
2018-01-27T00:19:45.955Z,12.00
2018-01-27T00:22:13.582Z,12.57
2018-01-27T00:24:41.215Z,12.10
2018-01-27T00:27:08.866Z,13.00
2018-01-27T00:29:37.342Z,12.93
2018-01-27T00:32:05.718Z,11.95
2018-01-27T00:34:34.149Z,11.77
2018-01-27T00:37:01.796Z,12.35
2018-01-27T00:39:30.162Z,13.23
2018-01-27T00:41:58.533Z,12.63
2018-01-27T00:44:26.190Z,13.70
2018-01-27T00:46:53.852Z,12.80
2018-01-27T00:49:21.604Z,11.30
2018-01-27T00:51:50.094Z,12.50
2018-01-27T00:54:17.756Z,14.13
2018-01-27T00:56:46.176Z,13.35
2018-01-27T00:59:14.157Z,13.88
2018-01-27T01:01:42.580Z,13.80
2018-01-27T01:04:10.190Z,13.00
2018-01-27T01:06:37.933Z,13.98
2018-01-27T01:09:05.544Z,15.00
2018-01-27T01:11:33.146Z,13.20
2018-01-27T01:14:00.851Z,13.80
2018-01-27T01:16:28.581Z,12.95
2018-01-27T01:18:56.230Z,15.02
2018-01-27T01:21:24.716Z,14.20
2018-01-27T01:23:52.371Z,13.05
2018-01-27T01:26:20.832Z,13.40
2018-01-27T01:28:48.457Z,13.45
2018-01-27T01:31:16.141Z,13.62
2018-01-27T01:33:43.820Z,15.05
2018-01-27T01:36:11.504Z,14.93
2018-01-27T01:38:39.143Z,14.93
2018-01-27T01:41:06.811Z,14.75
2018-01-27T01:43:40.745Z,14.27
2018-01-27T01:46:08.440Z,15.88
2018-01-27T01:48:36.131Z,15.35
2018-01-27T01:51:03.752Z,16.33
2018-01-27T01:53:31.370Z,14.57
2018-01-27T01:55:58.999Z,14.02
2018-01-27T01:58:27.420Z,15.35
2018-01-27T02:00:55.049Z,14.07
2018-01-27T02:03:23.509Z,15.95
2018-01-27T02:05:51.117Z,13.70
2018-01-27T02:08:18.953Z,15.35
2018-01-27T02:10:46.659Z,15.85
2018-01-27T02:13:14.280Z,14.60
2018-01-27T02:15:42.722Z,14.77
2018-01-27T02:18:10.398Z,14.43
2018-01-27T02:20:38.041Z,17.10
2018-01-27T02:23:05.694Z,16.42
2018-01-27T02:25:34.070Z,16.10
2018-01-27T02:28:01.731Z,14.77
2018-01-27T02:30:30.105Z,17.67
2018-01-27T02:32:58.550Z,16.42
2018-01-27T02:35:26.154Z,13.40
2018-01-27T02:37:53.815Z,14.18
2018-01-27T02:40:21.505Z,15.43
2018-01-27T02:42:49.884Z,14.95
2018-01-27T02:45:18.738Z,15.85
2018-01-27T02:47:46.414Z,14.30
2018-01-27T02:50:15.342Z,15.27
2018-01-27T02:52:43.766Z,14.87
2018-01-27T02:55:11.376Z,13.68
2018-01-27T02:57:39.840Z,16.70
2018-01-27T03:00:08.330Z,15.98
2018-01-27T03:02:35.946Z,13.83
2018-01-27T03:05:04.356Z,14.77
2018-01-27T03:07:31.966Z,15.48
2018-01-27T03:09:59.759Z,16.17
2018-01-27T03:12:28.128Z,15.07
2018-01-27T03:14:55.718Z,15.00
2018-01-27T03:17:23.424Z,16.30
2018-01-27T03:19:51.020Z,15.45
2018-01-27T03:22:18.788Z,14.40
2018-01-27T03:24:46.424Z,14.10
2018-01-27T03:27:14.083Z,16.90
2018-01-27T03:29:41.730Z,17.05
2018-01-27T03:32:09.355Z,16.87
2018-01-27T03:34:37.006Z,15.13
2018-01-27T03:37:04.648Z,14.82
2018-01-27T03:39:32.315Z,16.12
2018-01-27T03:41:59.937Z,15.93
2018-01-27T03:44:28.348Z,13.73
2018-01-27T03:46:56.011Z,17.85
2018-01-27T03:49:23.663Z,15.73
2018-01-27T03:51:52.070Z,15.60
2018-01-27T03:54:19.706Z,15.27
2018-01-27T03:56:48.113Z,17.57
2018-01-27T03:59:15.761Z,17.25
2018-01-27T04:01:44.153Z,18.30
2018-01-27T04:04:12.557Z,17.02
2018-01-27T04:06:40.194Z,14.73
2018-01-27T04:09:07.864Z,17.27
2018-01-27T04:11:36.246Z,17.30
2018-01-27T04:14:04.894Z,16.80
2018-01-27T04:16:32.607Z,17.50
2018-01-27T04:19:01.033Z,16.40
2018-01-27T04:21:28.743Z,16.75
2018-01-27T04:23:56.415Z,17.20
2018-01-27T04:26:24.879Z,16.80
2018-01-27T04:28:52.533Z,17.05
2018-01-27T04:31:20.168Z,16.95
2018-01-27T04:33:47.797Z,17.35
2018-01-27T04:36:16.243Z,16.98
2018-01-27T04:38:43.851Z,16.77
2018-01-27T04:41:12.323Z,17.40
2018-01-27T04:43:39.935Z,16.87
2018-01-27T04:46:07.554Z,16.05
2018-01-27T04:48:35.202Z,18.30
2018-01-27T04:51:02.869Z,18.13
2018-01-27T04:53:31.413Z,18.73
2018-01-27T04:55:59.058Z,17.50
2018-01-27T04:58:27.550Z,17.65
2018-01-27T05:00:55.190Z,16.85
2018-01-27T05:03:22.885Z,16.12
2018-01-27T05:05:51.322Z,16.15
2018-01-27T05:08:18.912Z,15.88
2018-01-27T05:10:46.516Z,17.25
2018-01-27T05:13:14.187Z,18.25
2018-01-27T05:15:41.859Z,15.17
2018-01-27T05:18:09.556Z,15.38
2018-01-27T05:20:37.234Z,15.45
2018-01-27T05:23:05.279Z,14.73
2018-01-27T05:25:32.920Z,14.50
2018-01-27T05:28:00.607Z,15.32
2018-01-27T05:30:30.178Z,16.15
2018-01-27T05:32:58.645Z,15.48
2018-01-27T05:35:27.080Z,15.35
2018-01-27T05:37:55.289Z,12.90
2018-01-27T05:40:22.943Z,13.38
2018-01-27T05:42:51.681Z,15.90
2018-01-27T05:45:19.303Z,15.05
2018-01-27T05:47:46.942Z,15.15
2018-01-27T05:50:14.596Z,12.98
2018-01-27T05:52:43.060Z,15.33
2018-01-27T05:55:10.718Z,16.33
2018-01-27T05:57:38.331Z,13.20
2018-01-27T06:00:06.012Z,15.00
2018-01-27T06:02:33.768Z,15.90
2018-01-27T06:05:01.440Z,13.73
2018-01-27T06:07:31.075Z,13.50
2018-01-27T06:09:58.745Z,13.95
2018-01-27T06:12:26.442Z,16.50
2018-01-27T06:14:54.807Z,16.02
2018-01-27T06:17:22.492Z,13.48
2018-01-27T06:19:50.153Z,16.40
2018-01-27T06:22:17.775Z,14.63
2018-01-27T06:24:45.424Z,14.65
2018-01-27T06:27:14.028Z,17.42
2018-01-27T06:29:41.640Z,17.57
2018-01-27T06:32:09.284Z,15.43
2018-01-27T06:34:36.969Z,16.17
2018-01-27T06:37:04.888Z,13.90
2018-01-27T06:39:32.499Z,14.43
2018-01-27T06:42:00.133Z,13.73
2018-01-27T06:44:28.102Z,15.95
2018-01-27T06:46:55.776Z,15.45
2018-01-27T06:49:23.390Z,14.18
2018-01-27T06:51:51.060Z,15.38
2018-01-27T06:54:18.777Z,14.17
2018-01-27T06:56:46.480Z,13.80
2018-01-27T06:59:14.158Z,15.23
2018-01-27T07:01:41.795Z,16.10
2018-01-27T07:04:09.455Z,15.38
2018-01-27T07:06:37.133Z,14.10
2018-01-27T07:09:04.787Z,14.43
2018-01-27T07:11:32.486Z,13.77
2018-01-27T07:14:00.547Z,15.82
2018-01-27T07:16:28.248Z,15.98
2018-01-27T07:18:55.908Z,16.80
2018-01-27T07:21:23.627Z,16.77
2018-01-27T07:23:51.296Z,16.57
2018-01-27T07:26:18.929Z,15.25
2018-01-27T07:28:47.352Z,15.10
2018-01-27T07:31:15.126Z,14.85
2018-01-27T07:33:42.786Z,15.17
2018-01-27T07:36:11.259Z,14.45
2018-01-27T07:38:38.903Z,15.32
2018-01-27T07:41:07.454Z,15.27
2018-01-27T07:43:35.120Z,16.42
2018-01-27T07:46:03.560Z,16.40
2018-01-27T07:48:31.245Z,16.83
2018-01-27T07:50:58.883Z,13.27
2018-01-27T07:53:27.327Z,16.83
2018-01-27T07:55:55.622Z,15.82
2018-01-27T07:58:23.326Z,15.20
2018-01-27T08:00:50.988Z,16.58
2018-01-27T08:03:18.981Z,16.83
2018-01-27T08:05:46.595Z,16.35
2018-01-27T08:08:14.238Z,17.87
2018-01-27T08:10:41.865Z,15.35
2018-01-27T08:13:09.579Z,16.55
2018-01-27T08:15:37.238Z,16.25
2018-01-27T08:18:04.954Z,17.60
2018-01-27T08:20:32.746Z,17.83
2018-01-27T08:23:00.506Z,15.60
2018-01-27T08:25:28.252Z,16.65
2018-01-27T08:27:55.953Z,14.95
2018-01-27T08:30:23.910Z,16.23
2018-01-27T08:32:51.686Z,16.15
2018-01-27T08:35:19.453Z,16.40
2018-01-27T08:37:47.587Z,15.20
2018-01-27T08:40:15.316Z,17.55
2018-01-27T08:42:43.947Z,15.65
2018-01-27T08:45:11.596Z,15.50
2018-01-27T08:47:39.289Z,16.80
2018-01-27T08:50:07.826Z,14.65
2018-01-27T08:52:35.469Z,15.10
2018-01-27T08:55:03.869Z,14.23
2018-01-27T08:57:32.182Z,13.40
2018-01-27T08:59:59.861Z,13.15
2018-01-27T09:02:27.507Z,13.27
2018-01-27T09:04:55.190Z,11.20
2018-01-27T09:07:22.903Z,13.55
2018-01-27T09:09:50.577Z,12.15
2018-01-27T09:12:18.269Z,13.18
2018-01-27T09:14:45.938Z,13.97
2018-01-27T09:17:13.593Z,10.52
2018-01-27T09:19:41.450Z,11.25
2018-01-27T09:22:09.070Z,10.20
2018-01-27T09:24:36.778Z,8.65
2018-01-27T09:27:05.227Z,10.30
2018-01-27T09:29:32.880Z,9.88
2018-01-27T09:32:01.129Z,9.10
2018-01-27T09:34:28.779Z,9.00
2018-01-27T09:36:56.432Z,10.55
2018-01-27T09:39:24.838Z,9.20
2018-01-27T09:41:52.497Z,8.90
2018-01-27T09:44:20.878Z,9.55
2018-01-27T09:46:48.513Z,9.57
2018-01-27T09:49:16.212Z,8.73
2018-01-27T09:51:44.795Z,7.68
2018-01-27T09:54:13.172Z,8.83
2018-01-27T09:56:41.853Z,7.62
2018-01-27T09:59:09.473Z,9.10
2018-01-27T10:01:42.230Z,8.67
2018-01-27T10:04:10.103Z,6.80
2018-01-27T10:06:37.895Z,8.43
2018-01-27T10:09:05.895Z,6.57
2018-01-27T10:11:33.516Z,7.47
2018-01-27T10:14:02.637Z,10.15
2018-01-27T10:16:30.302Z,6.85
2018-01-27T10:18:57.968Z,7.57
2018-01-27T10:21:25.631Z,8.05
2018-01-27T10:23:53.521Z,7.30
2018-01-27T10:26:21.180Z,7.57
2018-01-27T10:28:50.979Z,7.45
2018-01-27T10:31:19.656Z,6.82
2018-01-27T10:33:47.318Z,7.00
2018-01-27T10:36:15.765Z,9.93
2018-01-27T10:38:43.558Z,7.45
2018-01-27T10:41:12.866Z,6.85
2018-01-27T10:43:41.241Z,7.22
2018-01-27T10:46:08.999Z,6.75
2018-01-27T10:48:37.496Z,7.80
2018-01-27T10:51:05.326Z,7.40
2018-01-27T10:53:33.115Z,6.65
2018-01-27T10:56:01.611Z,8.80
2018-01-27T10:58:30.078Z,6.87
2018-01-27T11:00:59.153Z,7.40
2018-01-27T11:03:26.768Z,7.68
2018-01-27T11:05:54.731Z,7.90
2018-01-27T11:08:23.858Z,8.98
2018-01-27T11:10:52.234Z,8.30
2018-01-27T11:13:20.747Z,6.90
2018-01-27T11:15:48.458Z,9.50
2018-01-27T11:18:16.090Z,7.65
2018-01-27T11:20:43.774Z,7.53
2018-01-27T11:23:11.584Z,7.90
2018-01-27T11:25:40.025Z,7.87
2018-01-27T11:28:07.693Z,6.57
2018-01-27T11:30:35.426Z,7.65
2018-01-27T11:33:03.450Z,8.20
2018-01-27T11:35:31.109Z,7.60
2018-01-27T11:37:58.727Z,8.27
2018-01-27T11:40:27.918Z,8.15
2018-01-27T11:42:55.577Z,8.02
2018-01-27T11:45:23.206Z,8.00
2018-01-27T11:47:50.865Z,7.15
2018-01-27T11:50:18.525Z,8.57
2018-01-27T11:52:47.035Z,8.90
2018-01-27T11:55:15.506Z,9.60
2018-01-27T11:57:43.182Z,9.45
2018-01-27T12:00:10.916Z,8.00
2018-01-27T12:02:39.389Z,8.43
2018-01-27T12:05:07.876Z,8.90
2018-01-27T12:07:36.361Z,8.00
2018-01-27T12:10:08.580Z,7.78
2018-01-27T12:12:36.270Z,9.52
2018-01-27T12:15:03.937Z,9.57
2018-01-27T12:17:31.751Z,8.63
2018-01-27T12:19:59.376Z,9.40
2018-01-27T12:22:27.081Z,7.28
2018-01-27T12:24:55.446Z,8.27
2018-01-27T12:27:23.114Z,7.50
2018-01-27T12:29:51.174Z,7.95
2018-01-27T12:32:18.819Z,7.75
2018-01-27T12:34:46.456Z,8.27
2018-01-27T12:37:17.323Z,7.75
2018-01-27T12:39:46.641Z,8.25
2018-01-27T12:42:14.333Z,8.50
2018-01-27T12:44:44.638Z,9.00
2018-01-27T12:56:11.318Z,8.60
2018-01-27T12:58:39.112Z,8.18
2018-01-27T13:01:06.838Z,7.62
2018-01-27T13:06:27.388Z,7.93
2018-01-27T13:08:55.047Z,9.65
2018-01-27T13:11:23.479Z,8.25
2018-01-27T13:13:51.132Z,7.18
2018-01-27T13:16:19.119Z,7.75
2018-01-27T13:18:46.806Z,7.65
2018-01-27T13:21:14.448Z,8.45
2018-01-27T13:23:42.209Z,6.75
2018-01-27T13:26:09.893Z,7.50
2018-01-27T13:28:37.610Z,7.68
2018-01-27T13:31:05.318Z,8.65
2018-01-27T13:33:32.992Z,7.68
2018-01-27T13:36:00.624Z,8.73
2018-01-27T13:38:29.120Z,7.30
2018-01-27T13:40:57.452Z,7.53
2018-01-27T13:43:25.096Z,7.90
2018-01-27T13:45:52.769Z,9.13
2018-01-27T13:48:20.421Z,8.27
2018-01-27T13:50:48.173Z,8.02
2018-01-27T13:53:15.840Z,7.93
2018-01-27T13:55:43.578Z,7.82
2018-01-27T13:58:11.968Z,7.28
2018-01-27T14:00:40.569Z,8.07
2018-01-27T14:03:08.181Z,6.25
2018-01-27T14:05:35.852Z,7.57
2018-01-27T14:08:03.575Z,9.30
2018-01-27T14:10:31.238Z,8.35
2018-01-27T14:12:58.886Z,6.90
2018-01-27T14:15:27.291Z,6.68
2018-01-27T14:17:54.933Z,6.18
2018-01-27T14:20:23.363Z,7.62
2018-01-27T14:22:51.015Z,6.70
2018-01-27T14:25:18.635Z,6.87
2018-01-27T14:27:46.238Z,5.50
2018-01-27T14:30:13.929Z,5.60
2018-01-27T14:32:41.616Z,6.10
2018-01-27T14:35:09.267Z,4.65
2018-01-27T14:37:36.894Z,5.47
2018-01-27T14:40:05.350Z,4.97
2018-01-27T14:42:33.780Z,4.53
2018-01-27T14:45:01.440Z,5.78
2018-01-27T14:47:29.120Z,5.03
2018-01-27T14:49:56.794Z,5.47
2018-01-27T14:52:24.435Z,6.40
2018-01-27T14:54:52.027Z,6.05
2018-01-27T14:57:19.699Z,4.53
2018-01-27T14:59:47.497Z,5.37
2018-01-27T15:02:15.930Z,5.68
2018-01-27T15:04:43.633Z,5.85
2018-01-27T15:07:11.374Z,7.32
2018-01-27T15:09:39.009Z,4.83
2018-01-27T15:12:06.622Z,6.30
2018-01-27T15:14:34.239Z,6.87
2018-01-27T15:17:01.890Z,5.60
2018-01-27T15:19:29.572Z,6.47
2018-01-27T15:21:57.451Z,6.87
2018-01-27T15:24:25.071Z,6.65
2018-01-27T15:26:52.743Z,6.55
2018-01-27T15:29:21.176Z,8.00
2018-01-27T15:31:48.864Z,6.05
2018-01-27T15:34:16.508Z,6.18
2018-01-27T15:36:44.164Z,7.30
2018-01-27T15:39:11.782Z,6.70
2018-01-27T15:41:39.420Z,7.55
2018-01-27T15:44:07.108Z,6.70
2018-01-27T15:46:34.736Z,7.78
2018-01-27T15:49:02.450Z,8.25
2018-01-27T15:51:30.189Z,7.70
2018-01-27T15:53:57.840Z,8.05
2018-01-27T15:56:25.491Z,7.60
2018-01-27T15:58:53.963Z,9.40
2018-01-27T16:01:22.369Z,8.13
2018-01-27T16:03:50.112Z,8.27
2018-01-27T16:06:17.763Z,8.77
2018-01-27T16:08:45.414Z,8.73
2018-01-27T16:11:13.110Z,9.20
2018-01-27T16:13:41.833Z,9.50
2018-01-27T16:16:09.813Z,8.95
2018-01-27T16:18:37.426Z,9.73
2018-01-27T16:21:05.870Z,8.13
2018-01-27T16:23:33.553Z,7.70
2018-01-27T16:26:01.147Z,9.27
2018-01-27T16:28:28.767Z,10.18
2018-01-27T16:30:56.424Z,8.30
2018-01-27T16:33:24.081Z,9.60
2018-01-27T16:35:52.512Z,7.57
2018-01-27T16:38:20.268Z,8.77
2018-01-27T16:40:47.940Z,9.80
2018-01-27T16:43:15.626Z,8.83
2018-01-27T16:45:43.236Z,8.77
2018-01-27T16:48:11.690Z,8.38
2018-01-27T16:50:39.352Z,8.63
2018-01-27T16:53:06.964Z,8.55
2018-01-27T16:55:34.612Z,9.23
2018-01-27T16:58:03.024Z,8.02
2018-01-27T17:00:30.656Z,9.53
2018-01-27T17:02:59.093Z,9.90
2018-01-27T17:05:26.821Z,8.75
2018-01-27T17:07:54.454Z,10.35
2018-01-27T17:10:22.127Z,9.50
2018-01-27T17:12:49.777Z,8.77
2018-01-27T17:15:17.435Z,10.07
2018-01-27T17:17:45.065Z,9.75
2018-01-27T17:20:12.774Z,11.40
2018-01-27T17:22:40.424Z,10.67
2018-01-27T17:25:08.093Z,8.77
2018-01-27T17:27:35.806Z,9.30
2018-01-27T17:30:04.281Z,9.75
2018-01-27T17:32:31.958Z,9.73
2018-01-27T17:34:59.657Z,8.52
2018-01-27T17:37:27.963Z,9.00
2018-01-27T17:39:55.707Z,8.75
2018-01-27T17:42:24.105Z,10.63
2018-01-27T17:44:51.760Z,8.63
2018-01-27T17:47:19.457Z,10.85
2018-01-27T17:49:47.137Z,10.65
2018-01-27T17:52:14.791Z,9.47
2018-01-27T17:54:42.435Z,10.98
2018-01-27T17:57:10.341Z,10.10
2018-01-27T17:59:38.048Z,9.30
2018-01-27T18:02:06.529Z,10.48
2018-01-27T18:04:34.950Z,11.57
2018-01-27T18:07:02.608Z,9.30
2018-01-27T18:09:30.333Z,8.60
2018-01-27T18:11:58.001Z,11.88
2018-01-27T18:14:25.639Z,8.77
2018-01-27T18:16:53.300Z,10.43
2018-01-27T18:19:20.958Z,10.43
2018-01-27T18:21:48.610Z,10.00
2018-01-27T18:24:16.284Z,12.37
2018-01-27T18:26:43.942Z,10.47
2018-01-27T18:29:11.586Z,9.55
2018-01-27T18:31:39.983Z,9.85
2018-01-27T18:34:07.670Z,9.77
2018-01-27T18:36:35.362Z,12.00
2018-01-27T18:39:03.032Z,11.88
2018-01-27T18:41:30.700Z,11.40
2018-01-27T18:43:58.320Z,10.30
2018-01-27T18:46:31.842Z,10.75
2018-01-27T18:49:00.816Z,10.20
2018-01-27T18:51:28.519Z,11.95
2018-01-27T18:53:56.216Z,11.25
2018-01-27T18:56:23.870Z,10.38
2018-01-27T18:58:51.988Z,11.30
2018-01-27T19:01:19.659Z,10.65
2018-01-27T19:03:47.392Z,11.63
2018-01-27T19:06:15.008Z,10.75
2018-01-27T19:08:42.642Z,10.83
2018-01-27T19:11:11.057Z,11.88
2018-01-27T19:13:38.718Z,11.00
2018-01-27T19:16:06.434Z,12.00
2018-01-27T19:18:34.122Z,12.80
2018-01-27T19:21:02.603Z,11.82
2018-01-27T19:23:30.289Z,11.15
2018-01-27T19:25:58.033Z,11.88
2018-01-27T19:28:25.674Z,11.00
2018-01-27T19:30:54.261Z,12.82
2018-01-27T19:33:21.955Z,12.85
2018-01-27T19:35:50.335Z,14.32
2018-01-27T19:38:18.024Z,10.85
2018-01-27T19:40:46.434Z,12.30
2018-01-27T19:43:14.044Z,12.00
2018-01-27T19:45:41.706Z,13.93
2018-01-27T19:48:09.409Z,11.20
2018-01-27T19:50:37.887Z,12.52
2018-01-27T19:53:06.313Z,10.52
2018-01-27T19:55:33.969Z,12.70
2018-01-27T19:58:01.693Z,11.20
2018-01-27T20:00:29.352Z,14.40
2018-01-27T20:02:57.009Z,11.15
2018-01-27T20:05:24.652Z,13.25
2018-01-27T20:07:53.066Z,12.32
2018-01-27T20:10:20.768Z,12.48
2018-01-27T20:12:48.402Z,13.20
2018-01-27T20:15:16.085Z,13.07
2018-01-27T20:17:43.780Z,12.43
2018-01-27T20:20:12.290Z,11.88
2018-01-27T20:22:39.985Z,14.32
2018-01-27T20:25:07.657Z,12.65
2018-01-27T20:27:35.320Z,12.23
2018-01-27T20:30:03.032Z,13.07
2018-01-27T20:32:30.725Z,12.02
2018-01-27T20:35:00.076Z,13.18
2018-01-27T20:37:27.743Z,14.52
2018-01-27T20:39:55.402Z,12.88
2018-01-27T20:42:23.063Z,13.23
2018-01-27T20:44:51.601Z,14.15
2018-01-27T20:47:21.687Z,14.77
2018-01-27T20:49:50.357Z,14.20
2018-01-27T20:52:18.625Z,13.73
2018-01-27T20:54:46.232Z,14.55
2018-01-27T20:57:13.879Z,12.82
2018-01-27T20:59:41.579Z,14.33
2018-01-27T21:02:09.274Z,13.70
2018-01-27T21:04:37.757Z,14.50
2018-01-27T21:07:06.386Z,13.62
2018-01-27T21:09:34.061Z,12.65
2018-01-27T21:12:01.865Z,13.13
2018-01-27T21:14:29.535Z,14.00
2018-01-27T21:16:57.563Z,14.93
2018-01-27T21:19:25.336Z,14.20
2018-01-27T21:21:53.026Z,14.00
2018-01-27T21:24:20.684Z,13.73
2018-01-27T21:26:48.346Z,14.10
2018-01-27T21:29:15.958Z,13.73
2018-01-27T21:31:44.502Z,14.33
2018-01-27T21:34:12.189Z,12.98
2018-01-27T21:36:39.778Z,12.65
2018-01-27T21:39:08.233Z,14.77
2018-01-27T21:41:35.909Z,14.80
2018-01-27T21:44:03.541Z,13.25
2018-01-27T21:46:31.223Z,15.98
2018-01-27T21:48:58.888Z,14.07
2018-01-27T21:51:26.616Z,14.43
2018-01-27T21:53:55.031Z,14.87
2018-01-27T21:56:22.697Z,15.18
2018-01-27T21:58:50.382Z,14.85
2018-01-27T22:01:18.119Z,15.85
2018-01-27T22:03:45.788Z,15.35
2018-01-27T22:06:13.510Z,13.97
2018-01-27T22:08:41.174Z,14.27
2018-01-27T22:11:08.828Z,15.73
2018-01-27T22:13:36.472Z,13.93
2018-01-27T22:16:04.100Z,15.70
2018-01-27T22:18:32.546Z,14.60
2018-01-27T22:21:00.198Z,15.23
2018-01-27T22:23:27.799Z,14.23
2018-01-27T22:25:55.527Z,14.63
2018-01-27T22:28:23.172Z,15.52
2018-01-27T22:30:51.274Z,15.10
2018-01-27T22:33:18.957Z,14.65
2018-01-27T22:35:46.657Z,13.77
2018-01-27T22:38:15.038Z,15.60
2018-01-27T22:40:43.476Z,15.05
2018-01-27T22:43:11.135Z,15.20
2018-01-27T22:45:38.803Z,13.67
2018-01-27T22:48:06.492Z,16.05
2018-01-27T22:50:34.172Z,14.27
2018-01-27T22:53:01.862Z,15.98
2018-01-27T22:55:30.315Z,14.77
2018-01-27T22:57:57.958Z,13.40
2018-01-27T23:00:25.592Z,12.73
2018-01-27T23:02:54.049Z,12.90
2018-01-27T23:05:22.071Z,13.05
2018-01-27T23:07:50.198Z,14.05
2018-01-27T23:10:17.788Z,12.07
2018-01-27T23:12:46.251Z,14.63
2018-01-27T23:15:13.938Z,12.10
2018-01-27T23:17:42.398Z,10.38
2018-01-27T23:20:10.076Z,12.20
2018-01-27T23:22:37.783Z,13.05
2018-01-27T23:25:05.507Z,12.75
2018-01-27T23:27:33.780Z,13.03
2018-01-27T23:30:01.491Z,12.98
2018-01-27T23:32:29.172Z,11.65
2018-01-27T23:34:56.825Z,11.35
2018-01-27T23:37:24.550Z,10.38
2018-01-27T23:39:52.169Z,11.93
2018-01-27T23:42:19.847Z,13.27
2018-01-27T23:44:47.484Z,13.25
2018-01-27T23:47:15.924Z,12.30
2018-01-27T23:49:43.594Z,12.60
2018-01-27T23:52:11.245Z,12.45
2018-01-27T23:54:38.874Z,11.43
2018-01-27T23:57:06.557Z,10.95
2018-01-27T23:59:34.665Z,12.03
